Airfield :
LOGIN :

Register | Disclaimer

   EN    FR    IT 

 










Legend :    VFR   Marginal VFR   IFR   Intensive IFR   Very Intensive IFR
Visi :
Ceiling :
>= 8 km
>= 3000ft
5 to 8 km
1000 to 3000 ft
1500m to 5 km
500 to 1000 ft
800 to 1500m
200 to 500 ft
< 800m
< 200 ft
Symbols :   Thunderstorms  Fog  Heavy snow  Heavy precipitations  Wind > 20 kt
SIGMETs :     Misc.  Thunderstorms  Icing  Turbulence  Mountain Waves  Volcanic Ashes






- Airport Elevation : 141 ft
- IATA code : SKS


EKSP - Srydstrup Vojens

CURRENT METAR :
  • 040820Z 09006KT 9999 -SHRA FEW013 FEW050CB BKN080 13/12 Q0996 TEMPO 5000 SHRA SCT060CB

EXPIRED METARs :
  • 040750Z 08007KT 9999 -SHRA FEW013 FEW050CB BKN080 12/11 Q0996 TEMPO 5000 SHRA SCT060CB
  • 040720Z 07006KT 9999 -SHRA FEW050CB BKN080 12/11 Q0996 TEMPO 5000 SHRA SCT060CB
  • 040650Z 08008KT 040V100 9999 -SHRA FEW050CB BKN080 12/11 Q0996 TEMPO 5000 SHRA SCT060CB
  • 040620Z 07007KT 8000 -SHRA FEW050CB BKN080 12/11 Q0996 TEMPO 5000 SHRA SCT060CB
  • 040550Z 07008KT 9999 -SHRA FEW050CB BKN080 11/10 Q0997 TEMPO 6000 SHRA SCT060CB
  • 040520Z 08006KT 9999 -SHRA FEW050CB BKN080 12/10 Q0997 TEMPO 6000 SHRA SCT060CB

TAF TAF EKSP
Valid from the 04 at 06:00 until the 05 at 06:00 UTC


040504Z 0406/0506 11010KT 9999 SCT040 BKN060
TEMPO 0406/0408 7000 -SHRA SCT060CB
TEMPO 0408/0417 10012G22KT 4000 SHRA TSRA SCT012 BKN060CB
BECMG 0417/0420 25010KT
TEMPO 0417/0421 2500 SHRA BR BKN004 SCT030CB
TEMPO 0421/0503 4000 -SHRA BR BKN008 SCT025TCU



MET'MAP, your aeronautical weather chart ! - Copyright ORBIFLY December 2007 - Disclaimer

ORBIFLY MET'MAP TEAM :

Programming & Development : Alexandra Zaïnal
Concept & original design : Baudouin d'Aumeries
Assistance for programming : Marc-Olivier Méhu
Technical & hardware support : Manuel Goepfert

Contact : metmap@orbifly.com




SOURCES & CREDITS :

   NOAA